»·PEaware :: JBU717 KFLL-MMUN

JBU717 :: KFLL-MMUN

FLIGHT INFORMATION

Flight Status: Arrived
Operator:
JetBlue Airways
More flights by this operator :: More flights under this callsign
Pilot: Ty S. (2873)
Aircraft: AIRBUS A320
(A320)
More flights by this aircraft type
Origin: KFLL Ft Lauderdale-Hollywood Intl
United States
Destination: MMUN Cancun Intl
Mexico
More flights between these airports :: More routes between these airports
Route:
File this flight plan on PilotEdge
Remarks:
Altitude:
(Current/Filed)
0ft
Speed:
(Current/Filed)
0kts
Departed: 06-Mar-18 05:49 PM
Arrived: 06-Mar-18 07:17 PM
Distance/Time
Traveled:
477nm/1:28
Distance/Time
To Go:
Arrived

Flight Plot

Page will automatically refresh every two minutes.

Flight plan parsing failed; only flown route is shown


Map Options




Map Legend


Flown Route
Filed Route
Departure Airport
Arrival Airport
Navaid (VOR, NDB)
Fix

Horizontal Profiles

Position Reports

Time Latitude Longitude Heading Altitude Ground
Speed
06-Mar-18 17:12 26.073958 -80.146970 192 17ft 0kts
06-Mar-18 17:13 26.073958 -80.146970 192 17ft 0kts
06-Mar-18 17:14 26.073958 -80.146970 192 17ft 0kts
06-Mar-18 17:15 26.073958 -80.146970 192 17ft 0kts
06-Mar-18 17:16 26.073958 -80.146970 192 17ft 0kts
06-Mar-18 17:17 26.073958 -80.146970 192 17ft 0kts
06-Mar-18 17:18 26.073958 -80.146970 192 17ft 0kts
06-Mar-18 17:19 26.073958 -80.146970 192 17ft 0kts
06-Mar-18 17:20 26.073958 -80.146970 192 17ft 0kts
06-Mar-18 17:21 26.073958 -80.146970 192 17ft 0kts
06-Mar-18 17:22 26.073958 -80.146970 192 17ft 0kts
06-Mar-18 17:23 26.073958 -80.146970 192 17ft 0kts
06-Mar-18 17:24 26.073958 -80.146970 192 17ft 0kts
06-Mar-18 17:25 26.073958 -80.146970 192 17ft 0kts
06-Mar-18 17:26 26.073958 -80.146970 192 17ft 0kts
06-Mar-18 17:27 26.073958 -80.146970 192 17ft 0kts
06-Mar-18 17:28 26.073958 -80.146970 192 17ft 0kts
06-Mar-18 17:29 26.073958 -80.146970 192 17ft 0kts
06-Mar-18 17:30 26.073958 -80.146970 192 17ft 0kts
06-Mar-18 17:31 26.073958 -80.146970 192 17ft 0kts
06-Mar-18 17:32 26.073958 -80.146970 192 17ft 0kts
06-Mar-18 17:33 26.073958 -80.146970 192 17ft 0kts
06-Mar-18 17:34 26.073958 -80.146970 192 17ft 0kts
06-Mar-18 17:35 26.073958 -80.146970 192 17ft 0kts
06-Mar-18 17:36 26.073958 -80.146970 192 17ft 0kts
06-Mar-18 17:37 26.073958 -80.146970 192 17ft 0kts
06-Mar-18 17:38 26.073958 -80.146970 192 17ft 0kts
06-Mar-18 17:39 26.073958 -80.146970 192 17ft 0kts
06-Mar-18 17:40 26.073958 -80.146970 192 17ft 0kts
06-Mar-18 17:41 26.074357 -80.146870 192 17ft 2kts
06-Mar-18 17:42 26.074882 -80.146954 101 17ft 2kts
06-Mar-18 17:43 26.074881 -80.147206 93 17ft 0kts
06-Mar-18 17:44 26.074881 -80.147206 93 17ft 0kts
06-Mar-18 17:45 26.074881 -80.147206 93 17ft 0kts
06-Mar-18 17:46 26.074881 -80.147206 93 17ft 0kts
06-Mar-18 17:47 26.074881 -80.147206 93 17ft 0kts
06-Mar-18 17:48 26.074881 -80.147206 93 17ft 0kts
06-Mar-18 17:49 26.074881 -80.147206 93 17ft 0kts
06-Mar-18 17:50 26.074881 -80.147206 93 17ft 0kts
06-Mar-18 17:51 26.074881 -80.147203 93 17ft 0kts
06-Mar-18 17:52 26.074873 -80.146735 90 17ft 8kts
06-Mar-18 17:53 26.074853 -80.142780 90 17ft 13kts
06-Mar-18 17:54 26.075701 -80.140008 345 17ft 3kts
06-Mar-18 17:55 26.076801 -80.140922 270 17ft 9kts
06-Mar-18 17:56 26.076844 -80.153868 270 17ft 146kts
06-Mar-18 17:57 26.077031 -80.207252 266 2832ft 176kts
06-Mar-18 17:58 26.077498 -80.267071 267 4962ft 230kts
06-Mar-18 17:59 26.051587 -80.332821 197 7398ft 270kts
06-Mar-18 18:00 25.975032 -80.347267 193 10239ft 291kts
06-Mar-18 18:01 25.888274 -80.362906 192 11770ft 347kts
06-Mar-18 18:02 25.790696 -80.380307 193 14153ft 362kts
06-Mar-18 18:03 25.691546 -80.397988 194 16311ft 374kts
06-Mar-18 18:04 25.587471 -80.416509 194 18285ft 385kts
06-Mar-18 18:05 25.480546 -80.435502 195 20086ft 395kts
06-Mar-18 18:06 25.370945 -80.454934 195 21717ft 405kts
06-Mar-18 18:07 25.259070 -80.474730 196 23196ft 414kts
06-Mar-18 18:08 25.144268 -80.495007 196 24553ft 422kts
06-Mar-18 18:09 25.028346 -80.516779 203 25773ft 425kts
06-Mar-18 18:10 24.945092 -80.597143 247 26776ft 404kts
06-Mar-18 18:11 24.894843 -80.705285 246 27922ft 409kts
06-Mar-18 18:12 24.842486 -80.817283 246 28962ft 415kts
06-Mar-18 18:13 24.789255 -80.930824 247 29916ft 420kts
06-Mar-18 18:14 24.735537 -81.045125 247 30799ft 424kts
06-Mar-18 18:15 24.688449 -81.163383 253 31706ft 421kts
06-Mar-18 18:16 24.647075 -81.283025 253 32699ft 417kts
06-Mar-18 18:17 24.606053 -81.401341 253 33586ft 414kts
06-Mar-18 18:18 24.577374 -81.521593 266 34357ft 405kts
06-Mar-18 18:19 24.564007 -81.644264 266 35030ft 404kts
06-Mar-18 18:20 24.550193 -81.766431 262 35711ft 404kts
06-Mar-18 18:21 24.507592 -81.881592 249 36158ft 407kts
06-Mar-18 18:22 24.460378 -81.991631 249 36164ft 397kts
06-Mar-18 18:23 24.413142 -82.101460 249 36165ft 400kts
06-Mar-18 18:24 24.365637 -82.211635 249 36169ft 400kts
06-Mar-18 18:25 24.318179 -82.321437 249 36165ft 400kts
06-Mar-18 18:26 24.270556 -82.431356 249 36163ft 399kts
06-Mar-18 18:27 24.222980 -82.540899 249 36157ft 399kts
06-Mar-18 18:28 24.175449 -82.650079 249 36156ft 398kts
06-Mar-18 18:29 24.127729 -82.759436 249 36167ft 400kts
06-Mar-18 18:30 24.080225 -82.867997 249 36168ft 386kts
06-Mar-18 18:31 24.034125 -82.973181 249 36169ft 384kts
06-Mar-18 18:32 23.982933 -83.075813 238 36168ft 390kts
06-Mar-18 18:33 23.918731 -83.170717 239 36157ft 389kts
06-Mar-18 18:34 23.855515 -83.264055 239 36148ft 388kts
06-Mar-18 18:35 23.791546 -83.358321 239 36150ft 388kts
06-Mar-18 18:36 23.727239 -83.452899 239 36162ft 389kts
06-Mar-18 18:37 23.662263 -83.548308 239 36166ft 399kts
06-Mar-18 18:38 23.594733 -83.647241 238 36161ft 413kts
06-Mar-18 18:39 23.526123 -83.747542 238 36160ft 413kts
06-Mar-18 18:40 23.457591 -83.847555 238 36157ft 413kts
06-Mar-18 18:41 23.389215 -83.947141 238 36157ft 412kts
06-Mar-18 18:42 23.320823 -84.046563 238 36152ft 412kts
06-Mar-18 18:43 23.252361 -84.145887 238 36155ft 412kts
06-Mar-18 18:44 23.183680 -84.245339 238 36158ft 412kts
06-Mar-18 18:45 23.114896 -84.344744 238 36161ft 412kts
06-Mar-18 18:46 23.046080 -84.444011 238 36164ft 412kts
06-Mar-18 18:47 22.977172 -84.543220 237 36130ft 415kts
06-Mar-18 18:48 22.907172 -84.643817 237 36109ft 422kts
06-Mar-18 18:49 22.836735 -84.744845 236 36153ft 431kts
06-Mar-18 18:50 22.764054 -84.848869 236 36192ft 435kts
06-Mar-18 18:51 22.691144 -84.953011 236 36163ft 435kts
06-Mar-18 18:52 22.618142 -85.057080 236 36154ft 433kts
06-Mar-18 18:53 22.545505 -85.160422 236 36094ft 430kts
06-Mar-18 18:54 22.473762 -85.262300 236 35158ft 426kts
06-Mar-18 18:55 22.402511 -85.363276 236 34241ft 421kts
06-Mar-18 18:56 22.332999 -85.461599 236 32578ft 406kts
06-Mar-18 18:57 22.264548 -85.558258 236 30424ft 402kts
06-Mar-18 18:58 22.198057 -85.651974 235 28632ft 389kts
06-Mar-18 18:59 22.133609 -85.742657 235 26870ft 377kts
06-Mar-18 19:00 22.070612 -85.831151 235 25119ft 366kts
06-Mar-18 19:01 22.009734 -85.916532 235 23406ft 355kts
06-Mar-18 19:02 21.947151 -85.996722 224 21715ft 349kts
06-Mar-18 19:03 21.875686 -86.064010 224 20051ft 340kts
06-Mar-18 19:04 21.805755 -86.129850 223 18413ft 331kts
06-Mar-18 19:05 21.737570 -86.193950 223 16801ft 323kts
06-Mar-18 19:06 21.670947 -86.256499 223 15245ft 314kts
06-Mar-18 19:07 21.605968 -86.317427 223 13715ft 307kts
06-Mar-18 19:08 21.542319 -86.377045 222 12397ft 309kts
06-Mar-18 19:09 21.476447 -86.438659 222 11916ft 315kts
06-Mar-18 19:10 21.410947 -86.500087 223 11279ft 312kts
06-Mar-18 19:11 21.348019 -86.559868 223 9980ft 301kts
06-Mar-18 19:12 21.288981 -86.616854 223 8905ft 281kts
06-Mar-18 19:13 21.232765 -86.672198 222 7537ft 276kts
06-Mar-18 19:14 21.177275 -86.727916 222 6169ft 272kts
06-Mar-18 19:15 21.123190 -86.783031 222 5000ft 261kts
06-Mar-18 19:16 21.081354 -86.839688 265 4535ft 230kts
06-Mar-18 19:17 21.108017 -86.893762 303 3945ft 214kts
06-Mar-18 19:18 21.138422 -86.941037 303 3133ft 215kts
06-Mar-18 19:19 21.154004 -86.996415 230 3082ft 202kts
06-Mar-18 19:20 21.113151 -86.997321 142 2206ft 147kts
06-Mar-18 19:21 21.091432 -86.961996 131 1390ft 144kts
06-Mar-18 19:22 21.068711 -86.927839 125 933ft 147kts
06-Mar-18 19:23 21.045975 -86.891963 124 105ft 145kts
06-Mar-18 19:24 21.036031 -86.873726 71 30ft 14kts
06-Mar-18 19:25 21.036415 -86.871332 33 30ft 10kts
06-Mar-18 19:26 21.036728 -86.871091 36 30ft 0kts
06-Mar-18 19:27 21.036728 -86.871091 36 30ft 0kts
06-Mar-18 19:28 21.036728 -86.871091 36 30ft 0kts
06-Mar-18 19:29 21.036728 -86.871091 36 30ft 0kts
06-Mar-18 19:30 21.036728 -86.871091 36 30ft 0kts
06-Mar-18 19:31 21.036728 -86.871091 36 30ft 0kts
06-Mar-18 19:32 21.065184 -86.922454 125 814ft 146kts
06-Mar-18 19:33 21.036728 -86.871091 36 30ft 0kts
06-Mar-18 19:34 21.036728 -86.871091 36 30ft 0kts
06-Mar-18 19:35 21.036728 -86.871091 36 30ft 0kts
06-Mar-18 19:36 21.036728 -86.871091 36 30ft 0kts
06-Mar-18 19:37 21.036728 -86.871091 36 30ft 0kts
06-Mar-18 19:38 21.036728 -86.871091 36 30ft 0kts

Navigation Log

Ident Type
Flight plan parsing failed, navigation log unavailable